Terminal Aerodrome Forecast
Issued by NWS

Home | Current Version | Previous Version | Text Only | Print | Product List | Glossary On
Versions: 1 2 3 4 5 6 7 8 9 10 11 12
817
FTUS42 TJSJ 051737
TAFJPS
TAF
TJPS 051737Z 0518/0618 22010KT P6SM FEW030 SCT060
     FM052200 VRB05KT P6SM FEW030
     FM060200 00000KT P6SM FEW030
     FM061400 16012KT P6SM FEW030 SCT050
      AMD NOT SKED TIL 060300=

USA.gov is the U.S. government's official web portal to all federal, state and local government web resources and services.